Flight Track Log - Related Links

Times and Time Zones

All times are in EDT time to prevent confusion due to time zone crossing. See the N59984 flight status page for this flight to view local times or setup timezone preferences in your user account.


Time Position Orientation Groundspeed Altitude Reporting Facility
EDT Latitude Longitude Course Direction KTS MPH feet Rate Location/Type
Sat 06:20:30 PM 38.6025 -75.3553 31° Northeast 173 199 7,500  Level Washington Center
Sat 06:21:28 PM 38.6439 -75.3233 31° Northeast 173 199 7,400  Descending Washington Center
Sat 06:22:29 PM 38.6856 -75.2883 33° Northeast 178 205 7,500  Climbing Washington Center
Sat 06:23:30 PM 38.7294 -75.2564 30° Northeast 178 205 7,400  Descending Washington Center
Sat 06:24:30 PM 38.7731 -75.2269 28° Northeast 178 205 7,500 51 Climbing Washington Center
Sat 06:25:28 PM 38.8147 -75.1972 29° Northeast 178 205 7,500 -51 Level Washington Center
Sat 06:26:28 PM 38.8561 -75.1625 33° Northeast 178 205 7,400 -98 Descending Washington Center
Sat 06:27:30 PM 38.9000 -75.1328 28° Northeast 178 205 7,300 -49 Descending Washington Center
Sat 06:28:30 PM 38.9414 -75.1033 29° Northeast 173 199 7,300  Level Washington Center
Sat 06:29:28 PM 38.9831 -75.0736 29° Northeast 173 199 7,300  Level Washington Center
Sat 06:30:28 PM 39.0267 -75.0411 30° Northeast 173 199 7,300  Level Washington Center
Sat 06:32:00 PM 39.0852 -75.0047 26° Northeast  Level FlightAware Approximate
Sat 06:33:55 PM 39.1761 -74.9331 26° Northeast 178 205 7,300  Level Washington Center
Sat 06:35:00 PM 39.2164 -74.9046 29° Northeast  Level Estimated
Sat 06:37:30 PM 39.3297 -74.8269 29° Northeast 178 205 7,400  Level Washington Center
Sat 06:39:00 PM 39.3523 -74.8378 26° Northeast  Level FlightAware Approximate
Sat 06:39:00 PM 39.3882 -74.7947 23° Northeast  Level FlightAware Approximate
Sat 06:41:30 PM 39.5061 -74.7039 29° Northeast 186 214 7,300  Level Washington Center
Sat 06:42:00 PM 39.4765 -74.7198 29° Northeast  Level Estimated
Sat 06:43:00 PM 39.5700 -74.6800 16° North  Level FlightAware Approximate
Sat 06:46:00 PM 39.6611 -74.6420 29° Northeast  Level FlightAware Approximate
Sat 06:50:00 PM 39.8441 -74.5100 29° Northeast  Level FlightAware Approximate
Sat 06:51:00 PM 39.8829 -74.4820 29° Northeast  Level FlightAware Approximate
Sat 06:52:00 PM 39.9216 -74.4539 29° Northeast  Level FlightAware Approximate
Sat 06:53:00 PM 39.9604 -74.4259 29° Northeast  Level FlightAware Approximate
Sat 06:54:00 PM 39.9993 -74.3981 29° Northeast  Level FlightAware Approximate
Sat 06:54:40 PM 40.0667 -74.2833 25° Northeast 176 203 7,400  Level New York TRACON
Sat 06:55:00 PM 40.0382 -74.3704 29° Northeast  Level FlightAware Approximate
Sat 06:55:40 PM 40.1167 -74.2500 27° Northeast 176 203 7,400  Level New York TRACON
Sat 06:56:00 PM 40.0761 -74.3406 37° Northeast  Level FlightAware Approximate
Sat 06:56:40 PM 40.1500 -74.2167 37° Northeast 175 201 7,500  Level New York TRACON
Sat 06:57:00 PM 40.1139 -74.3104 30° Northeast  Level FlightAware Approximate
Sat 06:57:46 PM 40.2000 -74.1833 27° Northeast 177 204 7,400  Level New York TRACON
Sat 06:58:00 PM 40.1525 -74.2819 25° Northeast  Level FlightAware Approximate
Sat 06:58:46 PM 40.2500 -74.1500 27° Northeast 180 207 7,400  Level New York TRACON
Sat 06:59:00 PM 40.1928 -74.2577 25° Northeast  Level FlightAware Approximate
Sat 06:59:46 PM 40.2833 -74.1167 37° Northeast 172 198 7,400  Level New York TRACON
Sat 07:00:00 PM 40.2331 -74.2335 25° Northeast  Level FlightAware Approximate
Sat 07:00:40 PM 40.3333 -74.0833 27° Northeast 177 204 7,400  Level New York TRACON
Sat 07:01:40 PM 40.3667 -74.0500 37° Northeast 176 203 7,400  Level New York TRACON
Sat 07:02:40 PM 40.4167 -74.0333 14° North 174 200 7,400 50 Level New York TRACON
Sat 07:03:40 PM 40.4500 -74.0000 37° Northeast 170 196 7,500 50 Climbing New York TRACON
Sat 07:04:40 PM 40.5000 -73.9667 27° Northeast 173 199 7,500  Level New York TRACON
Sat 07:05:46 PM 40.5500 -73.9333 27° Northeast 175 201 7,500 -48 Level New York TRACON
Sat 07:06:46 PM 40.5833 -73.9000 37° Northeast 178 205 7,400 -50 Descending New York TRACON
Sat 07:07:46 PM 40.6333 -73.8667 27° Northeast 181 208 7,400  Level New York TRACON
Sat 07:08:46 PM 40.6667 -73.8333 37° Northeast 191 220 7,400  Level New York TRACON
Sat 07:09:46 PM 40.7167 -73.8000 27° Northeast 172 198 7,400  Level New York TRACON
Sat 07:10:46 PM 40.7500 -73.7833 21° North 169 194 7,400  Level New York TRACON
Sat 07:11:46 PM 40.8000 -73.7500 27° Northeast 174 200 7,400 50 Level New York TRACON
Sat 07:12:46 PM 40.8333 -73.7167 37° Northeast 170 196 7,500 50 Climbing New York TRACON
Sat 07:13:46 PM 40.8833 -73.6833 27° Northeast 174 200 7,500 -50 Level New York TRACON
Sat 07:14:46 PM 40.9167 -73.6500 37° Northeast 174 200 7,400 -50 Descending New York TRACON
Sat 07:15:46 PM 40.9667 -73.6167 27° Northeast 176 203 7,400 50 Level New York TRACON
Sat 07:16:46 PM 41.0000 -73.5833 37° Northeast 176 203 7,500  Climbing New York TRACON
Sat 07:17:40 PM 41.0500 -73.5667 14° North 176 203 7,400 -50 Descending New York TRACON
Sat 07:18:46 PM 41.1000 -73.5333 27° Northeast 174 200 7,400  Level New York TRACON
Sat 07:19:46 PM 41.1333 -73.5000 37° Northeast 174 200 7,400  Level New York TRACON
Sat 07:20:46 PM 41.1833 -73.4667 27° Northeast 169 194 7,400  Level New York TRACON
Sat 07:21:46 PM 41.2167 -73.4333 37° Northeast 174 200 7,400  Level New York TRACON
Sat 07:22:46 PM 41.2667 -73.4000 27° Northeast 178 205 7,400  Level New York TRACON
Sat 07:24:00 PM 41.3067 -73.3686 31° Northeast 174 200 7,400  Level Boston Center
Sat 07:25:01 PM 41.3486 -73.3386 28° Northeast 171 197 7,400  Level Boston Center
Sat 07:26:01 PM 41.3906 -73.3089 28° Northeast 173 199 7,400  Level Boston Center
Sat 07:27:02 PM 41.4344 -73.2736 31° Northeast 173 199 7,400  Level Boston Center
Sat 07:28:03 PM 41.4764 -73.2381 32° Northeast 172 198 7,400  Level Boston Center
Sat 07:29:09 PM 41.5206 -73.2025 31° Northeast 176 203 7,400 -47 Level Boston Center
Sat 07:30:10 PM 41.5644 -73.1697 29° Northeast 178 205 7,300 -197 Descending Boston Center
Sat 07:31:11 PM 41.6125 -73.1314 31° Northeast 186 214 7,000 -347 Descending Boston Center
Sat 07:32:11 PM 41.6567 -73.0931 33° Northeast 191 220 6,600 -446 Descending Boston Center
Sat 07:33:12 PM 41.7025 -73.0600 28° Northeast 184 212 6,100 -492 Descending Boston Center
Sat 07:34:13 PM 41.7467 -73.0244 31° Northeast 187 215 5,600 -541 Descending Boston Center
Sat 07:35:14 PM 41.7925 -72.9886 30° Northeast 186 214 5,000 -446 Descending Boston Center
Sat 07:36:14 PM 41.8364 -72.9556 29° Northeast 182 209 4,700 -298 Descending Boston Center
Sat 07:37:15 PM 41.8806 -72.9225 29° Northeast 182 209 4,400 -393 Descending Boston Center
Sat 07:38:16 PM 41.9244 -72.8867 31° Northeast 183 211 3,900 -470 Descending Boston Center
Sat 07:39:10 PM 41.9619 -72.8450 40° Northeast 186 214 3,500 -522 Descending Boston Center
Sat 07:40:11 PM 42.0039 -72.8061 35° Northeast 182 209 2,900 -595 Descending Boston Center
Sat 07:41:11 PM 42.0436 -72.7700 34° Northeast 174 200 2,300 -496 Descending Boston Center
Sat 07:42:12 PM 42.0811 -72.7339 36° Northeast 168 193 1,900 -443 Descending Boston Center
Sat 07:43:13 PM 42.1125 -72.6975 41° Northeast 146 168 1,400 -590 Descending Boston Center
Sat 07:44:14 PM 42.1439 -72.7006 356° North 129 148 700 -689 Descending Boston Center
Sat 07:46:00 PM 42.1500 -72.7000 37° Northeast  Level FlightAware Approximate
Sat 07:53:00 PM 42.1579 -72.7159 37° Northeast  Level Estimated
Sat 07:54:00 PM 42.1579 -72.7159 37° Northeast  Level Estimated
Sat 07:55:00 PM 42.1579 -72.7159 37° Northeast  Level Estimated

Login

Don't have an account? Register now (free) for customized features, flight alerts, and more!